Time;durP1;ratioP1;P1;durP2;ratioP2;P2;SDS_P1;SDS_P2;PMS_P1;PMS_P2;Temp;Humidity;BMP_temperature;BMP_pressure;BME280_temperature;BME280_humidity;BME280_pressure;Samples;Min_cycle;Max_cycle;Signal;HPM_P1;HPM_P2
2021/06/04 00:01:38;;;;;;;7.13;3.72;;;20.40;99.90;;;;;;5035482;28;20037;-69
2021/06/04 00:04:06;;;;;;;6.35;4.03;;;20.50;99.90;;;;;;5050988;28;20069;-69
2021/06/04 00:06:32;;;;;;;6.45;3.75;;;20.60;99.90;;;;;;5035166;28;20492;-69
2021/06/04 00:08:58;;;;;;;8.30;3.80;;;20.50;99.90;;;;;;5034150;28;20026;-69
2021/06/04 00:11:39;;;;;;;5.97;4.10;;;20.40;99.90;;;;;;5050885;28;20052;-69
2021/06/04 00:14:12;;;;;;;;;;;20.40;99.90;;;;;;5035772;28;20040;-69
2021/06/04 00:16:53;;;;;;;7.20;4.47;;;20.20;99.90;;;;;;5040609;28;19912;-69
2021/06/04 00:19:23;;;;;;;6.30;4.72;;;20.00;99.90;;;;;;5033862;28;20034;-69
2021/06/04 00:22:01;;;;;;;7.80;4.82;;;19.90;99.90;;;;;;5050231;28;20033;-69
2021/06/04 00:24:28;;;;;;;6.10;4.45;;;19.80;99.90;;;;;;5034862;28;20037;-69
2021/06/04 00:26:54;;;;;;;6.88;4.72;;;20.00;99.90;;;;;;5035218;28;20042;-69
2021/06/04 00:29:21;;;;;;;7.28;4.80;;;20.10;99.90;;;;;;5049740;28;20037;-69
2021/06/04 00:31:53;;;;;;;7.40;4.63;;;20.00;99.90;;;;;;5050714;28;20037;-68
2021/06/04 00:34:20;;;;;;;6.03;4.22;;;19.90;99.90;;;;;;5034986;28;20091;-69
2021/06/04 00:36:47;;;;;;;8.32;4.65;;;19.90;99.90;;;;;;5034860;28;20034;-69
2021/06/04 00:39:18;;;;;;;5.80;4.15;;;20.00;99.90;;;;;;5050294;28;20024;-68
2021/06/04 00:42:27;;;;;;;6.50;4.50;;;20.00;99.90;;;;;;5035133;28;20042;-69
2021/06/04 00:44:56;;;;;;;6.22;4.57;;;19.80;99.90;;;;;;5034547;28;20033;-70
2021/06/04 00:47:23;;;;;;;7.82;3.78;;;19.70;99.90;;;;;;5034756;28;20151;-69
2021/06/04 00:49:49;;;;;;;6.80;4.35;;;19.70;99.90;;;;;;5050182;28;20466;-70
2021/06/04 00:52:29;;;;;;;5.57;3.80;;;19.70;99.90;;;;;;5034866;28;20037;-70
2021/06/04 00:55:00;;;;;;;7.35;4.13;;;19.70;99.90;;;;;;5049761;28;20036;-70
2021/06/04 00:57:27;;;;;;;9.35;3.80;;;19.70;99.90;;;;;;5034717;28;20042;-69
2021/06/04 01:00:01;;;;;;;5.15;3.90;;;19.60;99.90;;;;;;5049502;28;20029;-70
2021/06/04 01:02:28;;;;;;;5.38;3.92;;;19.60;99.90;;;;;;5048787;28;20167;-69
2021/06/04 01:04:55;;;;;;;6.75;3.67;;;19.50;99.90;;;;;;5034643;28;20029;-69
2021/06/04 01:08:15;;;;;;;7.05;4.28;;;19.50;99.90;;;;;;5049669;28;20389;-69
2021/06/04 01:10:57;;;;;;;6.00;3.92;;;19.50;99.90;;;;;;5033375;28;20334;-69
2021/06/04 01:13:43;;;;;;;5.43;3.90;;;19.40;99.90;;;;;;5034288;28;20530;-69
2021/06/04 01:16:32;;;;;;;6.25;4.10;;;19.30;99.90;;;;;;5034470;28;20549;-69
2021/06/04 01:19:26;;;;;;;6.57;4.00;;;19.40;99.90;;;;;;5047174;28;20029;-68
2021/06/04 01:21:57;;;;;;;7.00;4.38;;;19.30;99.90;;;;;;5034252;28;20045;-69
2021/06/04 01:24:29;;;;;;;6.80;4.10;;;19.30;99.90;;;;;;5049067;28;20037;-69
2021/06/04 01:27:02;;;;;;;9.38;4.18;;;19.30;99.90;;;;;;5033810;28;20049;-68
2021/06/04 01:29:39;;;;;;;8.23;4.30;;;19.20;99.90;;;;;;5048514;28;20435;-69
2021/06/04 01:32:17;;;;;;;5.88;4.53;;;19.00;99.90;;;;;;5048746;28;20396;-69
2021/06/04 01:34:52;;;;;;;6.43;4.43;;;19.00;99.90;;;;;;5033740;28;20041;-68
2021/06/04 01:37:23;;;;;;;6.10;4.68;;;19.00;99.90;;;;;;5048771;28;20500;-69
2021/06/04 01:39:54;;;;;;;7.18;4.53;;;19.00;99.90;;;;;;5033363;28;20108;-69
2021/06/04 01:42:30;;;;;;;;;;;18.90;99.90;;;;;;5033974;28;20121;-68
2021/06/04 01:45:19;;;;;;;6.18;3.80;;;18.80;99.90;;;;;;5033747;28;19913;-69
2021/06/04 01:48:11;;;;;;;6.68;4.20;;;18.90;99.90;;;;;;5046731;28;20029;-68
2021/06/04 01:50:50;;;;;;;8.18;4.20;;;18.80;99.90;;;;;;5046489;28;20113;-68
2021/06/04 01:53:41;;;;;;;5.28;4.15;;;18.80;99.90;;;;;;5032364;28;20030;-68
2021/06/04 01:56:34;;;;;;;7.70;4.00;;;18.80;99.90;;;;;;5032616;28;20069;-68
2021/06/04 01:59:36;;;;;;;6.15;4.18;;;18.90;99.90;;;;;;5046095;28;20033;-68
2021/06/04 02:02:04;;;;;;;7.20;4.30;;;18.80;99.90;;;;;;5021244;28;20042;-69
2021/06/04 02:04:43;;;;;;;6.32;4.10;;;18.70;99.90;;;;;;5048301;28;20078;-69
2021/06/04 02:07:14;;;;;;;5.40;3.95;;;18.60;99.90;;;;;;5033261;28;20037;-70
2021/06/04 02:09:41;;;;;;;8.43;4.45;;;18.70;99.90;;;;;;5032966;28;20434;-69
2021/06/04 02:12:10;;;;;;;5.97;4.25;;;18.70;99.90;;;;;;5033348;28;20057;-69
2021/06/04 02:14:53;;;;;;;7.60;4.35;;;18.70;99.90;;;;;;5048419;28;20052;-69
2021/06/04 02:17:57;;;;;;;9.20;4.47;;;18.70;99.90;;;;;;5048030;28;20497;-69
2021/06/04 02:20:41;;;;;;;6.68;4.25;;;18.70;99.90;;;;;;5032864;28;20087;-69
2021/06/04 02:23:48;;;;;;;7.15;4.45;;;18.70;99.90;;;;;;5047795;28;20029;-69
2021/06/04 02:26:22;;;;;;;6.18;4.30;;;18.60;99.90;;;;;;5032647;28;20033;-69
2021/06/04 02:29:12;;;;;;;7.50;4.70;;;18.60;99.90;;;;;;5047636;28;20045;-69
2021/06/04 02:32:59;;;;;;;9.10;5.38;;;18.50;99.90;;;;;;5047174;28;20482;-68
2021/06/04 02:35:32;;;;;;;8.73;3.88;;;18.40;99.90;;;;;;5020690;28;20042;-68
2021/06/04 02:38:12;;;;;;;5.65;4.20;;;18.40;99.90;;;;;;5047710;28;20115;-68
2021/06/04 02:40:49;;;;;;;5.60;4.03;;;18.50;99.90;;;;;;5047060;28;20041;-68
2021/06/04 02:43:26;;;;;;;5.53;4.22;;;18.40;99.90;;;;;;5047111;28;20029;-69
2021/06/04 02:46:13;;;;;;;5.80;4.47;;;18.40;99.90;;;;;;5047720;28;20033;-68
2021/06/04 02:48:42;;;;;;;7.25;4.70;;;18.40;99.90;;;;;;5046907;28;20493;-68
2021/06/04 02:51:17;;;;;;;7.43;4.55;;;18.10;99.90;;;;;;5047660;28;20363;-69
2021/06/04 02:53:55;;;;;;;8.18;5.50;;;18.20;99.90;;;;;;5047155;28;20441;-69
2021/06/04 02:56:32;;;;;;;7.07;5.22;;;18.30;99.90;;;;;;5032660;28;20026;-69
2021/06/04 02:59:24;;;;;;;7.13;5.10;;;18.40;99.90;;;;;;5031458;28;20080;-68
2021/06/04 03:02:03;;;;;;;8.55;5.25;;;18.40;99.90;;;;;;5032183;28;20029;-68
2021/06/04 03:04:33;;;;;;;7.00;4.25;;;18.40;99.90;;;;;;5032506;28;20033;-68
2021/06/04 03:07:06;;;;;;;8.05;5.00;;;18.40;99.90;;;;;;5032352;28;20030;-69
2021/06/04 03:09:41;;;;;;;7.47;4.50;;;18.40;99.90;;;;;;5047412;28;20164;-69
2021/06/04 03:12:30;;;;;;;7.68;4.85;;;18.40;99.90;;;;;;5031082;28;20477;-69
2021/06/04 03:14:59;;;;;;;8.93;4.85;;;17.90;99.90;;;;;;5045945;28;20061;-69
2021/06/04 03:17:30;;;;;;;8.80;5.00;;;17.80;99.90;;;;;;5032400;28;20049;-69
2021/06/04 03:19:57;;;;;;;6.68;4.68;;;17.70;99.90;;;;;;5032420;28;20049;-69
2021/06/04 03:22:33;;;;;;;5.97;4.72;;;17.80;99.90;;;;;;5032119;28;20044;-69
2021/06/04 03:25:10;;;;;;;10.40;4.60;;;17.90;99.90;;;;;;5047342;28;20363;-69
2021/06/04 03:27:36;;;;;;;8.43;5.47;;;18.00;99.90;;;;;;5031964;28;20044;-68
2021/06/04 03:30:05;;;;;;;8.85;4.80;;;18.10;99.90;;;;;;5031830;28;20463;-69
2021/06/04 03:32:30;;;;;;;8.45;5.43;;;18.00;99.90;;;;;;5032001;28;20120;-69
2021/06/04 03:34:56;;;;;;;9.88;5.20;;;17.80;99.90;;;;;;5032324;28;20530;-69
2021/06/04 03:37:22;;;;;;;8.85;5.18;;;17.60;99.90;;;;;;5032148;28;20092;-69
2021/06/04 03:39:49;;;;;;;5.97;4.57;;;17.80;99.90;;;;;;5031665;28;20539;-69
2021/06/04 03:42:26;;;;;;;7.07;4.60;;;17.90;99.90;;;;;;5031963;28;20064;-69
2021/06/04 03:44:52;;;;;;;6.75;4.97;;;18.00;99.90;;;;;;5031904;28;20033;-72
2021/06/04 03:47:20;;;;;;;6.43;5.20;;;17.80;99.90;;;;;;5031251;28;20065;-71
2021/06/04 03:49:46;;;;;;;6.30;4.85;;;17.60;99.90;;;;;;5031844;28;20033;-70
2021/06/04 03:52:17;;;;;;;7.93;5.50;;;17.60;99.90;;;;;;5033468;28;20026;-71
2021/06/04 03:54:47;;;;;;;7.18;5.30;;;17.70;99.90;;;;;;5050757;28;20091;-60
2021/06/04 03:57:19;;;;;;;9.38;5.45;;;17.70;99.90;;;;;;5051825;28;20040;-60
2021/06/04 03:59:45;;;;;;;8.00;4.95;;;17.80;99.90;;;;;;5050622;28;20033;-60
2021/06/04 04:02:17;;;;;;;8.20;5.03;;;17.80;99.90;;;;;;5051725;28;20029;-61
2021/06/04 04:04:43;;;;;;;9.98;6.22;;;17.90;99.90;;;;;;5054319;28;20025;-60
2021/06/04 04:07:10;;;;;;;7.47;5.35;;;18.10;99.90;;;;;;5055577;28;20041;-60
2021/06/04 04:09:36;;;;;;;9.40;5.80;;;18.20;99.90;;;;;;5055552;28;20473;-59
2021/06/04 04:12:04;;;;;;;8.68;6.15;;;18.20;99.90;;;;;;5055286;28;20033;-59
2021/06/04 04:14:29;;;;;;;11.45;6.70;;;18.40;99.90;;;;;;5055165;28;20032;-58
2021/06/04 04:16:55;;;;;;;9.25;6.47;;;18.20;99.90;;;;;;5016960;28;20498;-58
2021/06/04 04:19:23;;;;;;;8.48;6.93;;;18.40;99.90;;;;;;5035385;28;20036;-58
2021/06/04 04:21:52;;;;;;;7.95;6.60;;;18.40;99.90;;;;;;5035237;28;20634;-59
2021/06/04 04:24:37;;;;;;;8.25;6.43;;;18.40;99.90;;;;;;5035373;28;20042;-59
2021/06/04 04:27:05;;;;;;;9.10;6.72;;;18.60;99.90;;;;;;5033976;28;20065;-59
2021/06/04 04:29:32;;;;;;;10.38;7.00;;;18.60;99.90;;;;;;5033732;28;20056;-58
2021/06/04 04:32:01;;;;;;;9.88;7.05;;;18.60;99.90;;;;;;5035252;28;20120;-59
2021/06/04 04:34:28;;;;;;;9.38;6.85;;;18.60;99.90;;;;;;5034819;28;20033;-59
2021/06/04 04:37:00;;;;;;;11.68;7.78;;;18.60;99.90;;;;;;5035013;28;20068;-60
2021/06/04 04:39:31;;;;;;;9.80;7.20;;;18.60;99.90;;;;;;5034821;28;20113;-57
2021/06/04 04:41:58;;;;;;;10.77;8.88;;;18.50;99.90;;;;;;5033351;28;20026;-59
2021/06/04 04:44:32;;;;;;;12.20;9.00;;;18.50;99.90;;;;;;5034904;28;20037;-65
2021/06/04 04:46:59;;;;;;;18.42;12.95;;;18.50;99.90;;;;;;5044331;28;20037;-68
2021/06/04 04:49:25;;;;;;;16.85;11.77;;;18.50;99.90;;;;;;5054659;28;20072;-67
2021/06/04 04:51:52;;;;;;;11.73;8.90;;;18.50;99.90;;;;;;5054269;28;20388;-65
2021/06/04 04:54:18;;;;;;;12.38;9.32;;;18.60;99.90;;;;;;5069795;28;20025;-64
2021/06/04 04:56:47;;;;;;;60.60;45.70;;;18.60;99.90;;;;;;5053205;28;20052;-64
2021/06/04 04:59:14;;;;;;;11.20;8.57;;;18.60;99.90;;;;;;5054538;28;20523;-66
2021/06/04 05:01:40;;;;;;;12.52;8.65;;;18.70;99.90;;;;;;5053848;28;20044;-63
2021/06/04 05:04:07;;;;;;;11.13;8.98;;;18.70;99.90;;;;;;5054467;28;20033;-66
2021/06/04 05:06:35;;;;;;;13.10;8.65;;;18.70;99.90;;;;;;5053003;28;20421;-60
2021/06/04 05:09:02;;;;;;;11.45;9.05;;;18.80;99.90;;;;;;5054259;28;20059;-58
2021/06/04 05:11:28;;;;;;;14.38;9.15;;;18.70;99.90;;;;;;5054370;28;20039;-60
2021/06/04 05:13:54;;;;;;;14.85;9.43;;;18.80;99.90;;;;;;5053950;28;20028;-61
2021/06/04 05:16:20;;;;;;;10.55;8.30;;;18.90;99.90;;;;;;5030254;28;20392;-59
2021/06/04 05:18:46;;;;;;;14.43;9.60;;;18.90;99.90;;;;;;5034270;28;20112;-60
2021/06/04 05:21:16;;;;;;;14.40;9.73;;;18.70;99.90;;;;;;5034278;28;20088;-61
2021/06/04 05:23:42;;;;;;;12.10;9.17;;;19.00;99.90;;;;;;5033883;28;20033;-60
2021/06/04 05:26:09;;;;;;;13.18;9.63;;;19.00;99.90;;;;;;5033963;28;20386;-61
2021/06/04 05:28:38;;;;;;;13.45;10.13;;;19.00;99.90;;;;;;5032547;28;20508;-60
2021/06/04 05:31:09;;;;;;;14.00;10.60;;;19.00;99.90;;;;;;5032787;28;20034;-61
2021/06/04 05:33:40;;;;;;;14.32;9.95;;;19.30;99.90;;;;;;5033777;28;20117;-60
2021/06/04 05:36:13;;;;;;;15.68;9.50;;;19.60;99.90;;;;;;5016612;28;20036;-60
2021/06/04 05:38:39;;;;;;;12.50;9.43;;;19.60;99.90;;;;;;5033816;28;20025;-62
2021/06/04 05:41:05;;;;;;;14.93;10.18;;;19.90;99.90;;;;;;5033654;28;20128;-60
2021/06/04 05:43:40;;;;;;;14.60;10.55;;;20.10;99.90;;;;;;5032314;28;20033;-60
2021/06/04 05:46:10;;;;;;;15.45;10.60;;;20.20;99.90;;;;;;5035247;28;20045;-59
2021/06/04 05:48:39;;;;;;;15.23;10.30;;;20.00;99.90;;;;;;5053434;28;20032;-59
2021/06/04 05:51:16;;;;;;;14.32;10.25;;;20.10;99.90;;;;;;5052386;28;20032;-61
2021/06/04 05:53:43;;;;;;;14.05;9.88;;;20.10;99.90;;;;;;5031374;28;20030;-60
2021/06/04 05:56:12;;;;;;;12.25;9.20;;;19.90;99.90;;;;;;5032231;28;20389;-60
2021/06/04 05:58:38;;;;;;;12.57;9.73;;;20.00;99.90;;;;;;5033333;28;20100;-60
2021/06/04 06:01:10;;;;;;;18.33;10.15;;;20.10;99.90;;;;;;5033293;28;20489;-60
2021/06/04 06:03:37;;;;;;;15.75;9.93;;;20.30;99.90;;;;;;5031953;28;20033;-60
2021/06/04 06:06:05;;;;;;;12.00;8.40;;;20.70;99.90;;;;;;5033116;28;20038;-60
2021/06/04 06:08:31;;;;;;;9.25;7.25;;;20.90;99.90;;;;;;5033367;28;20498;-60
2021/06/04 06:10:57;;;;;;;14.43;8.85;;;20.90;99.90;;;;;;5033248;28;20116;-60
2021/06/04 06:13:24;;;;;;;12.45;8.30;;;20.80;99.90;;;;;;5033290;28;20029;-60
2021/06/04 06:15:51;;;;;;;11.50;8.45;;;21.10;99.90;;;;;;5033334;28;20034;-62
2021/06/04 06:18:18;;;;;;;13.93;8.82;;;21.10;99.90;;;;;;5052929;28;20036;-60
2021/06/04 06:20:44;;;;;;;21.90;15.50;;;21.30;99.90;;;;;;5052956;28;20036;-59
2021/06/04 06:23:14;;;;;;;12.57;9.75;;;21.30;99.90;;;;;;5052655;28;20045;-60
2021/06/04 06:25:46;;;;;;;14.50;9.20;;;21.30;99.90;;;;;;5035304;28;20037;-59
2021/06/04 06:28:17;;;;;;;14.10;8.65;;;21.20;99.90;;;;;;5032323;28;20037;-61
2021/06/04 06:30:44;;;;;;;14.57;9.05;;;21.30;99.90;;;;;;5032743;28;20112;-59
2021/06/04 06:33:10;;;;;;;10.68;8.23;;;21.10;99.90;;;;;;5032635;28;20100;-60
2021/06/04 06:35:57;;;;;;;13.02;8.93;;;21.00;99.90;;;;;;5031468;28;20047;-61
2021/06/04 06:38:26;;;;;;;11.45;7.78;;;20.90;99.90;;;;;;5032729;28;20056;-60
2021/06/04 06:40:54;;;;;;;12.70;8.77;;;21.20;99.90;;;;;;5031373;28;20046;-60
2021/06/04 06:43:27;;;;;;;11.85;8.77;;;21.20;99.90;;;;;;5032736;28;20075;-60
2021/06/04 06:45:54;;;;;;;11.38;8.93;;;21.00;99.90;;;;;;5033482;28;20040;-59
2021/06/04 06:48:21;;;;;;;15.45;9.63;;;21.00;99.90;;;;;;5052513;28;20036;-60
2021/06/04 06:50:47;;;;;;;14.75;10.45;;;20.70;99.90;;;;;;5052310;28;20033;-59
2021/06/04 06:53:18;;;;;;;13.48;9.40;;;20.70;99.90;;;;;;5052664;28;20385;-59
2021/06/04 06:55:45;;;;;;;13.60;9.50;;;20.90;99.90;;;;;;5052307;28;20035;-60
2021/06/04 06:58:13;;;;;;;12.70;10.15;;;20.80;99.90;;;;;;5052471;28;20094;-67
2021/06/04 07:00:45;;;;;;;11.88;9.95;;;20.60;99.90;;;;;;5050986;28;20029;-67
2021/06/04 07:03:15;;;;;;;15.52;10.73;;;20.60;99.90;;;;;;5052023;28;20030;-67
2021/06/04 07:05:41;;;;;;;18.98;10.63;;;20.70;99.90;;;;;;5051009;28;20029;-69
2021/06/04 07:08:08;;;;;;;14.18;9.77;;;20.80;99.90;;;;;;5050771;28;20040;-69
2021/06/04 07:10:35;;;;;;;15.60;10.40;;;20.70;99.90;;;;;;5052444;28;20084;-69
2021/06/04 07:13:09;;;;;;;17.55;10.27;;;20.80;99.90;;;;;;5051884;28;20516;-69
2021/06/04 07:15:36;;;;;;;15.32;12.07;;;20.90;99.90;;;;;;5051216;28;20037;-69
2021/06/04 07:18:03;;;;;;;14.82;10.65;;;20.90;99.90;;;;;;5031740;28;20026;-69
2021/06/04 07:20:32;;;;;;;14.73;11.15;;;21.10;99.90;;;;;;5030828;28;20552;-69
2021/06/04 07:22:58;;;;;;;14.52;11.15;;;21.00;99.90;;;;;;5030691;28;20034;-69
2021/06/04 07:25:34;;;;;;;18.55;12.88;;;21.00;99.90;;;;;;5032075;28;20048;-68
2021/06/04 07:28:01;;;;;;;18.50;12.90;;;21.10;99.90;;;;;;5047016;28;20037;-68
2021/06/04 07:30:33;;;;;;;16.38;11.65;;;21.00;99.90;;;;;;5047337;28;20359;-67
2021/06/04 07:33:02;;;;;;;89.40;59.90;;;21.20;99.90;;;;;;5030391;28;20037;-68
2021/06/04 07:35:31;;;;;;;20.80;14.13;;;21.40;99.90;;;;;;5047391;28;20032;-67
2021/06/04 07:37:58;;;;;;;17.20;12.00;;;21.20;99.90;;;;;;5050577;28;20392;-68
2021/06/04 07:40:29;;;;;;;17.35;11.93;;;21.20;99.90;;;;;;5054586;28;20108;-68
2021/06/04 07:42:56;;;;;;;17.67;11.93;;;21.20;99.90;;;;;;5055811;28;20105;-68
2021/06/04 07:45:26;;;;;;;16.02;10.38;;;21.30;99.90;;;;;;5054567;28;20033;-68
2021/06/04 07:47:52;;;;;;;17.02;12.18;;;21.50;99.90;;;;;;5020655;28;20041;-68
2021/06/04 07:50:20;;;;;;;14.73;11.23;;;21.60;99.90;;;;;;5036292;28;20037;-68
2021/06/04 07:52:46;;;;;;;16.38;10.65;;;21.60;99.90;;;;;;5035573;28;20057;-68
2021/06/04 07:55:14;;;;;;;17.23;11.35;;;21.50;99.90;;;;;;5035822;28;20072;-68
2021/06/04 07:57:41;;;;;;;16.88;11.43;;;21.80;99.90;;;;;;5034154;28;20481;-68
2021/06/04 08:00:17;;;;;;;15.88;11.30;;;21.90;99.90;;;;;;5035503;28;20033;-68
2021/06/04 08:02:43;;;;;;;17.17;12.10;;;21.80;99.90;;;;;;5018321;28;20110;-68
2021/06/04 08:05:10;;;;;;;17.65;12.57;;;21.70;99.90;;;;;;5035307;28;20477;-68
2021/06/04 08:07:36;;;;;;;21.63;12.13;;;21.90;99.90;;;;;;5035530;28;20037;-68
2021/06/04 08:10:03;;;;;;;17.13;11.13;;;22.20;99.90;;;;;;5035165;28;20034;-68
2021/06/04 08:12:31;;;;;;;14.63;10.65;;;22.50;99.90;;;;;;5035594;28;20175;-68
2021/06/04 08:15:17;;;;;;;17.63;10.55;;;22.40;99.90;;;;;;5035107;28;20060;-68
2021/06/04 08:17:45;;;;;;;13.88;10.23;;;22.50;99.90;;;;;;5035494;28;20033;-69
2021/06/04 08:20:21;;;;;;;15.40;11.48;;;22.60;99.90;;;;;;5055094;28;20022;-68
2021/06/04 08:22:47;;;;;;;15.63;10.45;;;22.20;99.90;;;;;;5055165;28;20112;-68
2021/06/04 08:25:14;;;;;;;16.88;11.32;;;22.00;99.90;;;;;;5053616;28;20128;-68
2021/06/04 08:27:40;;;;;;;17.80;9.88;;;22.30;99.90;;;;;;5053743;28;20069;-68
2021/06/04 08:30:10;;;;;;;12.13;8.90;;;22.30;99.90;;;;;;5054530;28;20081;-68
2021/06/04 08:32:37;;;;;;;14.38;9.20;;;22.20;99.90;;;;;;5054923;28;20037;-69
2021/06/04 08:35:06;;;;;;;12.48;9.30;;;22.10;99.90;;;;;;5053285;28;20029;-69
2021/06/04 08:37:32;;;;;;;13.18;9.35;;;22.20;99.90;;;;;;5054801;28;20036;-68
2021/06/04 08:39:57;;;;;;;14.10;9.90;;;22.20;99.90;;;;;;5054631;28;20385;-69
2021/06/04 08:43:01;;;;;;;16.67;10.27;;;22.20;99.90;;;;;;5053431;28;20037;-69
2021/06/04 08:46:00;;;;;;;13.57;9.95;;;22.30;99.90;;;;;;5053524;28;20087;-69
2021/06/04 08:49:02;;;;;;;13.23;8.25;;;22.20;99.90;;;;;;5013424;28;20083;-69
2021/06/04 08:51:38;;;;;;;13.95;10.20;;;22.40;99.90;;;;;;5013461;28;20092;-69
2021/06/04 08:54:30;;;;;;;10.07;6.85;;;22.30;99.90;;;;;;5029428;28;20049;-69
2021/06/04 08:57:31;;;;;;;14.93;10.35;;;22.50;99.90;;;;;;5014576;28;20109;-69
2021/06/04 08:59:58;;;;;;;17.80;9.68;;;22.50;99.90;;;;;;5026874;28;20029;-68
2021/06/04 09:02:44;;;;;;;13.27;9.73;;;22.60;99.90;;;;;;5013484;28;20030;-68
2021/06/04 09:05:31;;;;;;;11.45;8.35;;;22.60;99.90;;;;;;5013496;28;20041;-68
2021/06/04 09:07:57;;;;;;;13.35;10.30;;;22.80;99.90;;;;;;5027960;28;20119;-68
2021/06/04 09:10:42;;;;;;;13.43;9.48;;;22.70;99.90;;;;;;5029561;28;20030;-68
2021/06/04 09:13:20;;;;;;;13.60;9.15;;;22.50;99.90;;;;;;5014413;28;20034;-68
2021/06/04 09:15:47;;;;;;;13.60;8.27;;;22.60;99.90;;;;;;5013071;28;20033;-69
2021/06/04 09:18:24;;;;;;;11.50;8.63;;;22.80;99.90;;;;;;5052974;28;20037;-68
2021/06/04 09:21:11;;;;;;;13.52;8.05;;;22.80;99.90;;;;;;5052623;28;20028;-68
2021/06/04 09:23:40;;;;;;;9.32;7.07;;;22.90;99.90;;;;;;5057602;28;20029;-70
2021/06/04 09:26:10;;;;;;;11.40;6.00;;;23.00;99.90;;;;;;5032161;28;20025;-67
2021/06/04 09:28:49;;;;;;;10.93;6.80;;;23.00;99.90;;;;;;5033845;28;20191;-68
2021/06/04 09:31:47;;;;;;;11.98;8.05;;;22.80;99.90;;;;;;5032333;28;20040;-68
2021/06/04 09:34:36;;;;;;;7.47;5.13;;;22.90;99.90;;;;;;5032369;28;20389;-68
2021/06/04 09:37:29;;;;;;;8.07;5.30;;;23.10;99.90;;;;;;5035821;28;20036;-67
2021/06/04 09:40:29;;;;;;;8.88;4.88;;;23.30;99.90;;;;;;5052239;28;20064;-70
2021/06/04 09:43:01;;;;;;;4.63;3.38;;;23.30;99.90;;;;;;5052434;28;20040;-68
2021/06/04 09:45:42;;;;;;;4.82;2.40;;;23.10;99.90;;;;;;5053116;28;20037;-67
2021/06/04 09:48:28;;;;;;;;;;;23.40;99.90;;;;;;5033850;28;20500;-66
2021/06/04 09:51:23;;;;;;;5.50;2.47;;;23.50;99.90;;;;;;5031915;28;19921;-69
2021/06/04 09:53:50;;;;;;;3.67;2.25;;;23.90;99.90;;;;;;5032145;28;20033;-66
2021/06/04 09:56:32;;;;;;;3.47;2.28;;;23.80;99.90;;;;;;5033421;28;20072;-64
2021/06/04 09:59:03;;;;;;;4.13;2.63;;;23.90;99.90;;;;;;5033353;28;20022;-60
2021/06/04 10:01:45;;;;;;;;;;;24.10;99.90;;;;;;5033143;28;20503;-61
2021/06/04 10:04:31;;;;;;;5.05;2.40;;;24.30;99.90;;;;;;5031906;28;19918;-73
2021/06/04 10:07:16;;;;;;;3.17;2.30;;;24.40;99.90;;;;;;5031578;28;20033;-65
2021/06/04 10:09:45;;;;;;;4.55;2.55;;;24.40;99.90;;;;;;5033145;28;20029;-71
2021/06/04 10:12:56;;;;;;;9.80;5.13;;;24.60;99.90;;;;;;5031373;28;20080;-68
2021/06/04 10:15:24;;;;;;;;;;;24.60;99.90;;;;;;5018049;28;20494;-67
2021/06/04 10:20:47;;;;;;;6.50;2.63;;;24.80;99.90;;;;;;5052953;28;20412;-66
2021/06/04 10:23:40;;;;;;;4.82;2.92;;;25.00;99.90;;;;;;5044661;28;20044;-66
2021/06/04 10:26:31;;;;;;;5.80;2.70;;;25.10;99.90;;;;;;5031075;28;20026;-67
2021/06/04 10:29:14;;;;;;;5.00;3.38;;;25.10;99.90;;;;;;5032536;28;20046;-67
2021/06/04 10:31:53;;;;;;;5.50;2.88;;;25.10;99.90;;;;;;5030980;28;20033;-67
2021/06/04 10:35:07;;;;;;;7.82;3.17;;;25.20;99.90;;;;;;5044845;28;20464;-67
2021/06/04 10:37:58;;;;;;;5.75;3.38;;;25.40;99.90;;;;;;5046128;28;20139;-67
2021/06/04 10:40:45;;;;;;;;;;;25.50;99.90;;;;;;5013039;28;20030;-66
2021/06/04 10:44:05;;;;;;;6.55;2.80;;;25.80;99.90;;;;;;5012568;28;19920;-65
2021/06/04 10:46:52;;;;;;;5.32;3.00;;;26.10;99.90;;;;;;5024762;28;20082;-64
2021/06/04 10:49:56;;;;;;;8.23;3.13;;;26.50;99.90;;;;;;5050894;28;20445;-65
2021/06/04 10:52:53;;;;;;;6.25;3.20;;;26.30;99.90;;;;;;5048313;28;20056;-66
2021/06/04 10:55:48;;;;;;;5.15;3.17;;;26.30;99.90;;;;;;5051952;28;20555;-66
2021/06/04 10:58:22;;;;;;;6.45;3.40;;;26.80;99.90;;;;;;5050957;28;20083;-66
2021/06/04 11:01:05;;;;;;;4.20;2.97;;;26.70;99.90;;;;;;5052432;28;20512;-65
2021/06/04 11:03:55;;;;;;;5.90;3.47;;;26.80;99.50;;;;;;5051380;28;20025;-66
2021/06/04 11:06:52;;;;;;;5.68;3.17;;;26.80;99.90;;;;;;5051964;28;20402;-66
2021/06/04 11:09:58;;;;;;;4.43;3.15;;;26.90;99.40;;;;;;5048594;28;20040;-65
2021/06/04 11:12:54;;;;;;;5.70;3.05;;;27.10;99.00;;;;;;5050335;28;20064;-65
2021/06/04 11:16:03;;;;;;;4.55;2.55;;;27.30;99.00;;;;;;5051945;28;20183;-66
2021/06/04 11:18:53;;;;;;;4.22;2.67;;;27.60;96.80;;;;;;5010790;28;20033;-66
2021/06/04 11:21:40;;;;;;;5.95;2.75;;;27.80;97.50;;;;;;5026696;28;20061;-66
2021/06/04 11:24:47;;;;;;;4.00;2.50;;;27.80;96.20;;;;;;5026720;28;20022;-66
2021/06/04 11:27:44;;;;;;;5.53;2.45;;;27.80;96.40;;;;;;5011926;28;20041;-66
2021/06/04 11:30:25;;;;;;;5.47;2.60;;;27.90;95.80;;;;;;5011733;28;20511;-66
2021/06/04 11:33:22;;;;;;;4.25;2.60;;;28.20;96.10;;;;;;5025762;28;20072;-66
2021/06/04 11:36:13;;;;;;;4.13;2.78;;;28.10;96.20;;;;;;5027062;28;20030;-66
2021/06/04 11:39:09;;;;;;;7.60;2.90;;;28.30;96.20;;;;;;5026600;28;20132;-66
2021/06/04 11:41:40;;;;;;;4.05;2.40;;;28.30;95.70;;;;;;5032055;28;20044;-66
2021/06/04 11:44:24;;;;;;;3.33;1.95;;;28.70;94.40;;;;;;5051763;28;20067;-65
2021/06/04 11:47:19;;;;;;;4.45;2.30;;;28.60;93.50;;;;;;5057894;28;20047;-65
2021/06/04 11:50:02;;;;;;;4.47;2.30;;;28.70;93.70;;;;;;5030935;28;20045;-65
2021/06/04 11:52:48;;;;;;;7.72;2.17;;;28.40;94.40;;;;;;5031714;28;20044;-65
2021/06/04 11:55:25;;;;;;;4.40;2.75;;;28.40;94.90;;;;;;5015047;28;20032;-65
2021/06/04 11:58:00;;;;;;;5.28;2.25;;;28.70;94.30;;;;;;5031502;28;20098;-65
2021/06/04 12:00:26;;;;;;;6.57;3.13;;;29.20;93.00;;;;;;5032055;28;20037;-65
2021/06/04 12:03:18;;;;;;;4.03;2.53;;;29.50;91.60;;;;;;5031612;28;20030;-65
2021/06/04 12:05:55;;;;;;;4.90;1.70;;;29.40;92.00;;;;;;5014443;28;20056;-66
2021/06/04 12:08:21;;;;;;;4.28;2.03;;;29.50;91.30;;;;;;5030462;28;20390;-66
2021/06/04 12:10:50;;;;;;;6.30;2.40;;;29.90;91.10;;;;;;5030390;28;20029;-66
2021/06/04 12:13:41;;;;;;;3.60;1.90;;;30.20;91.30;;;;;;5031597;28;20060;-66
2021/06/04 12:16:26;;;;;;;3.60;1.95;;;30.20;89.90;;;;;;5034433;28;20048;-66
2021/06/04 12:19:02;;;;;;;5.88;1.83;;;29.90;90.00;;;;;;5051279;28;20149;-66
2021/06/04 12:21:44;;;;;;;5.07;2.10;;;30.10;90.20;;;;;;5051183;28;20401;-66
2021/06/04 12:24:21;;;;;;;4.60;2.00;;;29.60;90.20;;;;;;5051117;28;20044;-66
2021/06/04 12:26:52;;;;;;;6.47;2.08;;;29.90;90.50;;;;;;5054817;28;20043;-66
2021/06/04 12:29:25;;;;;;;6.28;2.40;;;30.40;90.20;;;;;;5053387;28;20049;-66
2021/06/04 12:32:17;;;;;;;6.07;2.33;;;30.20;90.50;;;;;;5070125;28;20112;-66
2021/06/04 12:34:49;;;;;;;5.10;2.20;;;29.20;91.40;;;;;;5053798;28;20051;-66
2021/06/04 12:37:37;;;;;;;5.40;1.98;;;29.10;91.00;;;;;;5054880;28;20037;-66
2021/06/04 12:40:29;;;;;;;6.78;2.00;;;28.80;90.70;;;;;;5054835;28;20424;-67
2021/06/04 12:43:07;;;;;;;4.72;1.70;;;28.90;91.30;;;;;;5070313;28;20067;-65
2021/06/04 12:45:38;;;;;;;3.20;1.92;;;28.70;90.30;;;;;;5053000;28;20477;-64
2021/06/04 12:48:23;;;;;;;4.20;1.55;;;28.30;91.10;;;;;;5069091;28;20088;-67
2021/06/04 12:51:05;;;;;;;5.65;1.98;;;28.30;90.80;;;;;;5054914;28;20021;-66
2021/06/04 12:53:47;;;;;;;5.78;2.00;;;28.20;91.30;;;;;;5069798;28;20028;-66
2021/06/04 12:56:25;;;;;;;5.75;2.00;;;28.00;92.20;;;;;;5069687;28;20078;-65
2021/06/04 12:59:02;;;;;;;4.45;2.10;;;27.80;91.80;;;;;;5054408;28;20033;-65
2021/06/04 13:01:32;;;;;;;4.40;2.67;;;27.90;91.90;;;;;;5054235;28;20548;-65
2021/06/04 13:04:19;;;;;;;9.82;2.75;;;27.80;93.20;;;;;;5052803;28;20044;-65
2021/06/04 13:06:52;;;;;;;4.20;2.42;;;27.60;93.60;;;;;;5052959;28;20541;-65
2021/06/04 13:09:41;;;;;;;6.75;2.25;;;27.60;94.10;;;;;;5052767;28;20572;-65
2021/06/04 13:12:22;;;;;;;3.33;1.88;;;26.70;95.90;;;;;;5052990;28;20083;-65
2021/06/04 13:14:52;;;;;;;5.35;2.60;;;26.00;97.90;;;;;;5053979;28;20075;-65
2021/06/04 13:17:30;;;;;;;7.40;2.27;;;25.60;99.50;;;;;;5040764;28;20474;-64
2021/06/04 13:20:08;;;;;;;5.22;2.58;;;25.10;99.90;;;;;;5033792;28;20068;-65
2021/06/04 13:22:35;;;;;;;7.68;3.28;;;25.00;99.90;;;;;;5034041;28;20030;-65
2021/06/04 13:25:23;;;;;;;7.78;2.60;;;24.80;99.90;;;;;;5033868;28;20052;-65
2021/06/04 13:28:17;;;;;;;9.02;2.30;;;24.50;99.90;;;;;;5033853;28;20145;-65
2021/06/04 13:30:57;;;;;;;6.70;3.47;;;23.80;99.90;;;;;;5034135;28;20033;-65
2021/06/04 13:33:33;;;;;;;9.90;3.90;;;23.40;99.90;;;;;;5036242;28;20511;-65